Weather observations for the past three days for
College Station, Easterwood Field
Metric (Imperial)
Date Time (cdt) Wind (kph) Vis. (km) Weather Sky Cond. Temperature (ºC) Relative Humidity Wind Chill (°C) Heat Index (°C) Pressure Precipitation (cm)
Air Dwpt 6 hour altimeter (cm) sea level (mb) 1 hr 3 hr 6 hr
Max. Min.
02 07:53 W 6 16.09 Fair CLR 26.7 22.2 76% 29 76.1 1014.0
02 06:53 W 7 16.09 Fair CLR 26.1 21.7 26.7 25 77% 28 76.07 1013.5
02 05:53 Calm 16.09 Fair CLR 26.1 21.7 77% 28 76.07 1013.6
02 04:53 Calm 16.09 Fair CLR 26.1 21.7 77% 28 76.07 1013.6
02 03:53 Calm 16.09 Fair CLR 25.6 21.7 79% 27 76.05 1013.4
02 02:53 Vrbl 6 16.09 Fair CLR 26.1 21.7 77% 28 76.07 1013.5
02 01:53 W 6 16.09 Fair CLR 25.6 21.7 79% 27 76.1 1014.1
02 00:53 Calm 16.09 Fair CLR 25.6 21.7 34.4 25.6 79% 27 76.1 1013.9
01 23:53 Calm 16.09 Fair CLR 26.7 21.7 74% 29 76.07 1013.8
01 22:53 SE 6 16.09 Fair CLR 27.8 22.2 72% 30 76.1 1014.0
01 21:53 SE 6 16.09 A Few Clouds FEW120 28.3 21.7 67% 31 76.05 1013.2
01 20:53 E 9 16.09 Fair CLR 29.4 21.7 63% 32 76 1012.7
01 19:53 E 19 16.09 Fair CLR 30.6 21.1 57% 33 76 1012.5
01 18:53 E 26 G 39 16.09 Fair CLR 35 20 36.7 33.9 41% 38 75.92 1011.7
01 17:53 E 19 16.09 Fair CLR 35.6 19.4 39% 38 75.95 1011.8
01 16:53 E 6 16.09 Fair CLR 35.6 19.4 39% 38 75.95 1012.0
01 15:53 NE 13 16.09 Fair CLR 35 19.4 40% 37 76 1012.5
01 14:53 E 17 16.09 Fair CLR 35 20.6 43% 38 76.05 1013.4
01 13:53 NE 13 16.09 Mostly Cloudy SCT060 BKN075 34.4 20 43% 37 76.07 1013.8
01 12:53 E 15 16.09 Partly Cloudy SCT055 33.9 20.6 35.6 25 46% 37 76.17 1015.0
01 11:53 N 9 16.09 Fair CLR 33.3 21.1 49% 37 76.23 1015.7
01 10:53 Calm 16.09 A Few Clouds FEW031 31.7 22.8 59% 36 76.25 1016.1
01 09:53 W 7 16.09 Fair CLR 30.6 22.8 63% 35 76.25 1016.1
01 08:53 NW 11 16.09 Fair CLR 28.9 23.9 74% 33 76.28 1016.2
01 07:53 N 6 16.09 Fair CLR 26.7 23.3 82% 29 76.25 1016.0
01 06:53 Calm 16.09 Fair CLR 25 22.8 27.8 25 88% 26 76.2 1015.3
01 05:53 Calm 16.09 Fair CLR 26.1 22.8 82% 28 76.17 1014.9
01 04:53 Calm 16.09 Fair CLR 26.1 22.8 82% 28 76.15 1014.7
01 03:53 Calm 16.09 Fair CLR 26.7 22.8 79% 29 76.17 1015.0
01 02:53 Calm 16.09 Fair CLR 26.7 22.8 79% 29 76.2 1015.2
01 01:53 S 11 16.09 Fair CLR 27.2 22.2 74% 30 76.2 1015.2
01 00:53 S 9 16.09 Fair CLR 27.8 21.7 35.6 27.8 69% 30 76.17 1015.1
31 23:53 S 9 16.09 Fair CLR 28.9 21.1 63% 31 76.15 1014.5
31 22:53 S 9 16.09 Fair CLR 30 21.1 59% 33 76.12 1014.3
31 21:53 SE 11 16.09 Fair CLR 30.6 21.7 59% 34 76.07 1013.8
31 20:53 SE 15 16.09 Partly Cloudy SCT090 SCT120 31.7 21.7 55% 35 76.02 1013.1
31 19:53 SE 20 G 37 16.09 Partly Cloudy SCT070 33.3 21.1 49% 37 76 1012.7
31 18:53 S 15 16.09 Fair CLR 35.6 18.9 37.8 33.9 37% 38 75.97 1012.4
31 17:53 SE 20 G 28 16.09 Fair CLR 36.7 18.9 35% 39 75.97 1012.4
31 16:53 S 13 16.09 A Few Clouds FEW070 37.2 18.3 33% 39 76.02 1012.8
31 15:53 SE 11 G 31 16.09 Fair CLR 37.2 18.9 34% 39 76.05 1013.4
31 14:53 SE 11 G 26 16.09 A Few Clouds FEW070 FEW085 37.2 18.3 33% 39 76.12 1014.3
31 13:53 SE 15 G 26 16.09 Partly Cloudy SCT060 36.7 20 38% 40 76.2 1015.2
31 12:53 SE 13 16.09 Partly Cloudy SCT055 35.6 20 35.6 23.9 40% 38 76.25 1016.0
31 11:53 Calm 16.09 Fair CLR 33.3 20.6 47% 36 76.3 1016.5
31 10:53 Vrbl 11 16.09 Fair CLR 31.7 22.8 59% 36 76.3 1016.7
31 09:53 Vrbl 11 16.09 A Few Clouds FEW018 30 24.4 72% 36 76.3 1016.6
31 08:53 Calm 16.09 Fair CLR 27.2 24.4 85% 31 76.28 1016.3
31 07:53 Calm 16.09 Fair CLR 25 23.3 90% 26 76.23 1015.7
31 06:53 Calm 16.09 Fair CLR 24.4 22.8 27.8 24.4 91% 24 76.2 1015.2
31 05:53 Calm 16.09 Fair CLR 25 22.8 88% 26 76.17 1015.0
31 04:53 S 6 16.09 Fair CLR 25 22.8 88% 26 76.17 1015.0
31 03:53 S 7 16.09 Fair CLR 25 22.8 88% 26 76.15 1014.8
31 02:53 S 7 16.09 Fair CLR 25.6 22.2 82% 27 76.17 1015.0
31 01:53 S 7 16.09 Fair CLR 26.1 22.2 79% 28 76.2 1015.2
31 00:53 S 9 16.09 Fair CLR 27.8 22.2 35.6 27.8 72% 30 76.2 1015.1
30 23:53 S 13 16.09 Fair CLR 28.3 22.2 70% 31 76.15 1014.7
30 22:53 S 11 16.09 Fair CLR 28.9 21.7 65% 32 76.12 1014.4
30 21:53 S 11 16.09 Fair CLR 30 20 55% 32 76.07 1013.6
30 20:53 S 11 16.09 Fair CLR 31.7 18.9 47% 33 76 1012.6
30 19:53 S 9 16.09 Fair CLR 33.3 18.3 41% 34 75.97 1012.4
30 18:53 S 19 16.09 Fair CLR 35.6 17.8 37.8 33.9 35% 37 75.97 1012.3
30 17:53 SE 17 16.09 Fair CLR 36.1 17.8 34% 37 75.97 1012.3
30 16:53 Vrbl 6 G 26 16.09 Fair CLR 36.7 15.6 28% 37 76 1012.7
30 15:53 Vrbl 11 G 30 16.09 Mostly Cloudy BKN070 37.2 18.3 33% 39 76.05 1013.2
30 14:53 S 22 G 37 16.09 A Few Clouds FEW065 36.7 18.9 35% 39 76.12 1014.3
30 13:53 SE 15 G 30 16.09 A Few Clouds FEW055 35.6 19.4 39% 38 76.2 1015.2
30 12:53 SW 15 G 30 16.09 A Few Clouds FEW048 34.4 20.6 35 23.9 44% 37 76.25 1016.1
30 11:53 Calm 16.09 Fair CLR 32.2 21.7 54% 36 76.33 1017.0
30 10:53 SW 19 16.09 Partly Cloudy SCT032 30.6 22.8 63% 35 76.33 1017.2
30 09:53 SW 17 16.09 Mostly Cloudy BKN015 28.9 23.9 74% 33 76.33 1017.0
30 08:53 S 9 16.09 Mostly Cloudy BKN013 26.7 24.4 87% 30 76.33 1017.1
Date Time (cdt) Wind (kph) Vis. (km) Weather Sky Cond. Air Dwpt Max. Min. Relative Humidity Wind Chill (°C) Heat Index (°C) altimeter (cm) sea level (mb) 1 hr 3 hr 6 hr
6 hour
Temperature (ºC) Pressure Precipitation (cm)